Time;durP1;ratioP1;P1;durP2;ratioP2;P2;SDS_P1;SDS_P2;PMS_P1;PMS_P2;Temp;Humidity;BMP_temperature;BMP_pressure;BME280_temperature;BME280_humidity;BME280_pressure;Samples;Min_cycle;Max_cycle;Signal;HPM_P1;HPM_P2
2021/06/21 00:00:54;;;;;;;8.45;6.63;;;;;;;;;;5094752;28;20032;-84
2021/06/21 00:03:20;;;;;;;6.85;6.28;;;;;;;;;;5094665;28;20486;-85
2021/06/21 00:05:46;;;;;;;6.72;6.22;;;;;;;;;;5095036;28;20031;-86
2021/06/21 00:08:12;;;;;;;7.82;7.13;;;;;;;;;;5094359;28;20369;-82
2021/06/21 00:10:38;;;;;;;10.27;6.70;;;;;;;;;;5094113;28;20024;-82
2021/06/21 00:13:04;;;;;;;7.22;6.55;;;;;;;;;;5093382;28;20030;-81
2021/06/21 00:15:32;;;;;;;7.43;6.65;;;;;;;;;;5093943;28;20482;-82
2021/06/21 00:17:58;;;;;;;6.63;6.13;;;;;;;;;;5094080;28;20416;-81
2021/06/21 00:20:24;;;;;;;7.82;7.15;;;;;;;;;;5093622;28;20022;-83
2021/06/21 00:22:51;;;;;;;7.70;6.97;;;;;;;;;;5094210;28;20484;-81
2021/06/21 00:25:17;;;;;;;7.50;6.82;;;;;;;;;;5094625;28;20059;-87
2021/06/21 00:27:43;;;;;;;7.07;6.47;;;;;;;;;;5094292;28;20038;-86
2021/06/21 00:30:10;;;;;;;8.02;7.25;;;;;;;;;;5094423;28;20469;-86
2021/06/21 00:32:37;;;;;;;7.82;7.20;;;;;;;;;;5094492;28;20404;-86
2021/06/21 00:35:03;;;;;;;7.57;6.88;;;;;;;;;;5093945;28;20052;-79
2021/06/21 00:37:29;;;;;;;7.20;6.63;;;;;;;;;;5093984;28;20512;-83
2021/06/21 00:39:55;;;;;;;10.07;7.68;;;;;;;;;;5093838;28;20020;-81
2021/06/21 00:42:21;;;;;;;7.57;6.95;;;;;;;;;;5093485;28;20031;-81
2021/06/21 00:44:47;;;;;;;9.40;6.85;;;;;;;;;;5093572;28;20488;-80
2021/06/21 00:47:13;;;;;;;7.93;7.22;;;;;;;;;;5093979;28;20029;-81
2021/06/21 00:49:40;;;;;;;8.98;6.72;;;;;;;;;;5093831;28;20056;-84
2021/06/21 00:52:07;;;;;;;7.68;7.07;;;;;;;;;;5094234;28;20027;-82
2021/06/21 00:54:33;;;;;;;7.45;6.45;;;;;;;;;;5093902;28;20090;-81
2021/06/21 00:56:59;;;;;;;7.55;6.80;;;;;;;;;;5093598;28;20021;-82
2021/06/21 00:59:25;;;;;;;9.10;7.30;;;;;;;;;;5093957;28;20535;-82
2021/06/21 01:01:51;;;;;;;7.35;6.70;;;;;;;;;;5093888;28;20111;-81
2021/06/21 01:04:17;;;;;;;7.07;6.47;;;;;;;;;;5094373;28;20030;-82
2021/06/21 01:06:43;;;;;;;9.20;7.05;;;;;;;;;;5093880;28;20522;-87
2021/06/21 01:09:09;;;;;;;7.22;6.00;;;;;;;;;;5097090;28;20461;-85
2021/06/21 01:11:55;;;;;;;7.10;6.50;;;;;;;;;;5098060;28;20032;-85
2021/06/21 01:14:22;;;;;;;7.95;7.35;;;;;;;;;;5083748;28;20024;-85
2021/06/21 01:16:49;;;;;;;10.00;7.28;;;;;;;;;;5097906;28;20485;-85
2021/06/21 01:19:23;;;;;;;7.55;6.88;;;;;;;;;;5098224;28;20031;-84
2021/06/21 01:22:08;;;;;;;8.13;7.32;;;;;;;;;;5097919;28;20036;-85
2021/06/21 01:24:54;;;;;;;16.65;9.43;;;;;;;;;;5097148;28;20027;-78
2021/06/21 01:27:22;;;;;;;11.95;6.75;;;;;;;;;;5082245;28;20032;-79
2021/06/21 01:30:08;;;;;;;13.32;7.35;;;;;;;;;;5097152;28;20082;-81
2021/06/21 01:32:42;;;;;;;12.05;7.15;;;;;;;;;;5081990;28;20016;-87
2021/06/21 01:35:10;;;;;;;12.90;8.40;;;;;;;;;;5097931;28;20024;-87
2021/06/21 01:37:36;;;;;;;11.23;7.60;;;;;;;;;;5097602;28;20492;-88
2021/06/21 01:40:03;;;;;;;9.52;8.02;;;;;;;;;;5097222;28;20024;-80
2021/06/21 01:42:29;;;;;;;7.95;7.18;;;;;;;;;;5096674;28;20354;-79
2021/06/21 01:45:11;;;;;;;8.68;7.97;;;;;;;;;;5096897;28;20024;-80
2021/06/21 01:47:37;;;;;;;;;;;;;;;;;;5097469;28;20032;-79
2021/06/21 01:50:03;;;;;;;13.90;9.45;;;;;;;;;;5096643;28;19958;-79
2021/06/21 01:52:34;;;;;;;8.45;7.65;;;;;;;;;;5096906;28;20016;-78
2021/06/21 01:55:00;;;;;;;8.80;7.93;;;;;;;;;;5096960;28;20020;-79
2021/06/21 01:57:28;;;;;;;14.57;8.98;;;;;;;;;;5096705;28;20453;-84
2021/06/21 01:59:54;;;;;;;9.68;7.72;;;;;;;;;;5097575;28;20120;-86
2021/06/21 02:02:21;;;;;;;9.68;8.23;;;;;;;;;;5097737;28;20024;-86
2021/06/21 02:04:47;;;;;;;10.90;9.25;;;;;;;;;;5097440;28;20055;-86
2021/06/21 02:07:13;;;;;;;12.65;9.13;;;;;;;;;;5097257;28;20082;-87
2021/06/21 02:09:39;;;;;;;9.73;8.70;;;;;;;;;;5097094;28;20039;-86
2021/06/21 02:12:06;;;;;;;11.07;8.70;;;;;;;;;;5096784;28;20028;-86
2021/06/21 02:14:32;;;;;;;10.70;9.60;;;;;;;;;;5096822;28;20124;-83
2021/06/21 02:16:58;;;;;;;10.60;8.30;;;;;;;;;;5097372;28;20024;-82
2021/06/21 02:19:25;;;;;;;9.85;8.75;;;;;;;;;;5095512;28;20351;-84
2021/06/21 02:21:51;;;;;;;10.60;8.65;;;;;;;;;;5096648;28;20031;-86
2021/06/21 02:24:18;;;;;;;10.93;8.00;;;;;;;;;;5096521;28;20020;-83
2021/06/21 02:26:44;;;;;;;9.70;8.13;;;;;;;;;;5096346;28;20059;-86
2021/06/21 02:29:10;;;;;;;12.88;8.93;;;;;;;;;;5096449;28;20048;-86
2021/06/21 02:31:36;;;;;;;9.02;8.23;;;;;;;;;;5096526;28;20070;-84
2021/06/21 02:34:02;;;;;;;9.68;8.45;;;;;;;;;;5096429;28;20024;-84
2021/06/21 02:36:29;;;;;;;8.95;8.15;;;;;;;;;;5096441;28;20023;-83
2021/06/21 02:38:55;;;;;;;9.60;8.80;;;;;;;;;;5096024;28;20036;-80
2021/06/21 02:41:21;;;;;;;12.80;8.93;;;;;;;;;;5095540;28;20027;-79
2021/06/21 02:43:47;;;;;;;9.77;8.88;;;;;;;;;;5095825;28;20035;-82
2021/06/21 02:46:13;;;;;;;9.57;8.63;;;;;;;;;;5095844;28;20020;-81
2021/06/21 02:48:40;;;;;;;10.48;9.00;;;;;;;;;;5096069;28;20492;-83
2021/06/21 02:51:06;;;;;;;9.32;8.40;;;;;;;;;;5095731;28;20055;-82
2021/06/21 02:53:36;;;;;;;9.50;8.38;;;;;;;;;;5096353;28;20067;-85
2021/06/21 02:56:17;;;;;;;10.00;8.93;;;;;;;;;;5096005;28;20154;-86
2021/06/21 02:58:45;;;;;;;10.30;9.25;;;;;;;;;;5096702;28;20110;-86
2021/06/21 03:01:12;;;;;;;10.02;9.02;;;;;;;;;;5095752;28;20029;-81
2021/06/21 03:03:39;;;;;;;11.77;10.80;;;;;;;;;;5095538;28;20082;-81
2021/06/21 03:06:06;;;;;;;12.13;11.13;;;;;;;;;;5095294;28;20467;-81
2021/06/21 03:08:32;;;;;;;11.98;10.88;;;;;;;;;;5094507;28;20034;-80
2021/06/21 03:10:58;;;;;;;10.93;9.65;;;;;;;;;;5094785;28;20028;-81
2021/06/21 03:13:24;;;;;;;25.45;13.73;;;;;;;;;;5095121;28;20107;-81
2021/06/21 03:15:50;;;;;;;37.20;20.60;;;;;;;;;;5095809;28;20028;-81
2021/06/21 03:18:16;;;;;;;17.08;13.23;;;;;;;;;;5095354;28;20080;-81
2021/06/21 03:20:42;;;;;;;18.77;13.77;;;;;;;;;;5094748;28;20408;-80
2021/06/21 03:23:09;;;;;;;13.88;12.48;;;;;;;;;;5094875;28;20020;-81
2021/06/21 03:25:35;;;;;;;20.33;13.82;;;;;;;;;;5094583;28;20028;-81
2021/06/21 03:28:10;;;;;;;22.73;14.68;;;;;;;;;;5095204;28;20032;-81
2021/06/21 03:30:36;;;;;;;15.82;13.07;;;;;;;;;;5094674;28;20035;-81
2021/06/21 03:33:02;;;;;;;15.88;12.73;;;;;;;;;;5094757;28;20070;-81
2021/06/21 03:35:28;;;;;;;12.35;11.15;;;;;;;;;;5094749;28;20103;-81
2021/06/21 03:37:54;;;;;;;13.93;11.60;;;;;;;;;;5094628;28;20422;-80
2021/06/21 03:40:21;;;;;;;12.90;11.77;;;;;;;;;;5095273;28;20031;-81
2021/06/21 03:42:47;;;;;;;11.32;10.43;;;;;;;;;;5095480;28;20136;-81
2021/06/21 03:45:14;;;;;;;12.63;11.43;;;;;;;;;;5094508;28;20017;-81
2021/06/21 03:47:40;;;;;;;13.40;11.00;;;;;;;;;;5094829;28;20028;-81
2021/06/21 03:50:06;;;;;;;13.90;12.70;;;;;;;;;;5093989;28;20395;-81
2021/06/21 03:52:32;;;;;;;19.35;11.95;;;;;;;;;;5093641;28;20028;-80
2021/06/21 03:55:13;;;;;;;12.68;11.32;;;;;;;;;;5094336;28;20024;-81
2021/06/21 03:57:40;;;;;;;13.05;11.75;;;;;;;;;;5093393;28;20386;-80
2021/06/21 04:00:09;;;;;;;10.15;9.13;;;;;;;;;;5093940;28;20028;-81
2021/06/21 04:02:35;;;;;;;12.48;11.02;;;;;;;;;;5093843;28;20470;-77
2021/06/21 04:05:01;;;;;;;11.77;10.77;;;;;;;;;;5093414;28;20024;-76
2021/06/21 04:07:27;;;;;;;10.85;10.00;;;;;;;;;;5094132;28;20024;-82
2021/06/21 04:09:53;;;;;;;10.57;9.50;;;;;;;;;;5093604;28;20023;-81
2021/06/21 04:12:19;;;;;;;12.00;10.90;;;;;;;;;;5093612;28;20024;-81
2021/06/21 04:14:45;;;;;;;11.30;10.23;;;;;;;;;;5093377;28;20020;-81
2021/06/21 04:17:12;;;;;;;10.85;9.85;;;;;;;;;;5093295;28;20024;-81
2021/06/21 04:19:38;;;;;;;10.10;9.30;;;;;;;;;;5092917;28;20026;-80
2021/06/21 04:22:04;;;;;;;9.90;9.10;;;;;;;;;;5093310;28;20519;-78
2021/06/21 04:24:30;;;;;;;9.88;9.07;;;;;;;;;;5093133;28;20462;-77
2021/06/21 04:26:56;;;;;;;15.63;10.30;;;;;;;;;;5093688;28;20059;-76
2021/06/21 04:29:23;;;;;;;9.85;9.05;;;;;;;;;;5091689;28;20040;-80
2021/06/21 04:31:49;;;;;;;12.18;11.10;;;;;;;;;;5092273;28;20024;-79
2021/06/21 04:34:15;;;;;;;10.75;9.50;;;;;;;;;;5092216;28;20461;-77
2021/06/21 04:36:41;;;;;;;11.30;10.20;;;;;;;;;;5092222;28;20036;-80
2021/06/21 04:39:07;;;;;;;11.68;10.05;;;;;;;;;;5092279;28;20534;-80
2021/06/21 04:41:33;;;;;;;10.82;9.40;;;;;;;;;;5092632;28;20020;-86
2021/06/21 04:43:59;;;;;;;10.27;9.30;;;;;;;;;;5095813;28;20059;-81
2021/06/21 04:46:29;;;;;;;10.43;9.40;;;;;;;;;;5096182;28;20508;-85
2021/06/21 04:48:56;;;;;;;11.48;9.07;;;;;;;;;;5096272;28;20040;-83
2021/06/21 04:51:22;;;;;;;10.80;9.65;;;;;;;;;;5076236;28;100861;-81
2021/06/21 04:53:48;;;;;;;10.73;9.82;;;;;;;;;;5097440;28;20032;-83
2021/06/21 04:56:15;;;;;;;9.95;9.15;;;;;;;;;;5097305;28;20075;-78
2021/06/21 04:58:41;;;;;;;12.45;9.60;;;;;;;;;;5097908;28;20090;-84
2021/06/21 05:01:07;;;;;;;9.32;8.52;;;;;;;;;;5096926;28;20052;-80
2021/06/21 05:03:36;;;;;;;10.70;9.70;;;;;;;;;;5097209;28;20022;-79
2021/06/21 05:06:02;;;;;;;11.15;8.70;;;;;;;;;;5097659;28;20056;-76
2021/06/21 05:08:28;;;;;;;11.15;9.18;;;;;;;;;;5097297;28;20499;-79
2021/06/21 05:10:54;;;;;;;13.63;9.45;;;;;;;;;;5096883;28;20028;-77
2021/06/21 05:13:20;;;;;;;12.75;9.55;;;;;;;;;;5097568;28;20470;-81
2021/06/21 05:15:46;;;;;;;13.43;10.15;;;;;;;;;;5097568;28;20031;-78
2021/06/21 05:18:12;;;;;;;9.35;8.60;;;;;;;;;;5097909;28;20355;-91
2021/06/21 05:20:39;;;;;;;10.05;9.13;;;;;;;;;;5097545;28;20077;-86
2021/06/21 05:23:05;;;;;;;8.93;8.18;;;;;;;;;;5097897;28;20031;-85
2021/06/21 05:25:33;;;;;;;11.45;9.57;;;;;;;;;;5097083;28;20024;-85
2021/06/21 05:27:59;;;;;;;11.35;9.68;;;;;;;;;;5098333;28;20071;-86
2021/06/21 05:30:25;;;;;;;9.63;8.90;;;;;;;;;;5098024;28;20067;-86
2021/06/21 05:32:51;;;;;;;10.27;9.38;;;;;;;;;;5097698;28;20024;-85
2021/06/21 05:35:19;;;;;;;10.27;9.10;;;;;;;;;;5097758;28;20562;-86
2021/06/21 05:37:45;;;;;;;11.30;9.48;;;;;;;;;;5097975;28;20024;-86
2021/06/21 05:40:12;;;;;;;10.82;9.73;;;;;;;;;;5098027;28;20032;-86
2021/06/21 05:42:38;;;;;;;9.40;8.60;;;;;;;;;;5097549;28;20035;-82
2021/06/21 05:45:05;;;;;;;9.32;8.50;;;;;;;;;;5097424;28;20496;-89
2021/06/21 05:47:31;;;;;;;11.40;10.00;;;;;;;;;;5097122;28;20496;-81
2021/06/21 05:49:57;;;;;;;8.73;7.95;;;;;;;;;;5096894;28;20055;-81
2021/06/21 05:52:23;;;;;;;10.85;9.80;;;;;;;;;;5097317;28;20095;-81
2021/06/21 05:54:49;;;;;;;10.25;9.25;;;;;;;;;;5097636;28;20032;-80
2021/06/21 05:57:15;;;;;;;12.27;9.73;;;;;;;;;;5097644;28;20029;-81
2021/06/21 05:59:41;;;;;;;13.32;9.13;;;;;;;;;;5097400;28;20028;-81
2021/06/21 06:02:07;;;;;;;12.50;8.80;;;;;;;;;;5097277;28;20080;-78
2021/06/21 06:04:35;;;;;;;11.00;10.10;;;;;;;;;;5097347;28;20020;-83
2021/06/21 06:07:01;;;;;;;12.32;10.10;;;;;;;;;;5096702;28;20031;-78
2021/06/21 06:09:27;;;;;;;18.88;8.85;;;;;;;;;;5096597;28;20419;-79
2021/06/21 06:11:53;;;;;;;10.93;10.02;;;;;;;;;;5096865;28;20031;-78
2021/06/21 06:14:19;;;;;;;10.93;9.93;;;;;;;;;;5096955;28;20069;-78
2021/06/21 06:16:45;;;;;;;10.65;9.68;;;;;;;;;;5097013;28;20069;-78
2021/06/21 06:19:12;;;;;;;13.70;9.10;;;;;;;;;;5097221;28;20359;-78
2021/06/21 06:21:38;;;;;;;10.65;9.70;;;;;;;;;;5096534;28;20055;-78
2021/06/21 06:24:04;;;;;;;10.35;9.55;;;;;;;;;;5096173;28;20064;-77
2021/06/21 06:26:30;;;;;;;11.40;9.52;;;;;;;;;;5096518;28;20161;-78
2021/06/21 06:28:56;;;;;;;10.80;9.85;;;;;;;;;;5096188;28;20078;-78
2021/06/21 06:31:22;;;;;;;12.07;9.93;;;;;;;;;;5095813;28;20469;-79
2021/06/21 06:33:49;;;;;;;9.98;9.07;;;;;;;;;;5096171;28;20024;-78
2021/06/21 06:36:15;;;;;;;12.43;10.23;;;;;;;;;;5096372;28;20035;-78
2021/06/21 06:38:41;;;;;;;10.35;9.27;;;;;;;;;;5096623;28;20058;-79
2021/06/21 06:41:07;;;;;;;8.82;8.13;;;;;;;;;;5096462;28;20489;-79
2021/06/21 06:43:33;;;;;;;13.60;9.50;;;;;;;;;;5096061;28;20047;-79
2021/06/21 06:46:00;;;;;;;13.32;8.23;;;;;;;;;;5096216;28;20484;-81
2021/06/21 06:48:26;;;;;;;14.68;9.07;;;;;;;;;;5096355;28;20040;-81
2021/06/21 06:50:52;;;;;;;9.00;8.30;;;;;;;;;;5096688;28;20213;-81
2021/06/21 06:53:26;;;;;;;9.90;9.02;;;;;;;;;;5096597;28;20028;-81
2021/06/21 06:58:38;;;;;;;9.95;8.85;;;;;;;;;;5081185;28;20032;-80
2021/06/21 07:01:04;;;;;;;9.88;7.97;;;;;;;;;;5095732;28;20030;-80
2021/06/21 07:03:30;;;;;;;9.80;8.85;;;;;;;;;;5095965;28;20074;-79
2021/06/21 07:05:56;;;;;;;10.32;9.52;;;;;;;;;;5095346;28;20499;-78
2021/06/21 07:08:22;;;;;;;9.38;8.57;;;;;;;;;;5096189;28;20036;-79
2021/06/21 07:10:48;;;;;;;10.43;9.38;;;;;;;;;;5095803;28;20028;-80
2021/06/21 07:13:14;;;;;;;8.18;7.45;;;;;;;;;;5095669;28;20055;-80
2021/06/21 07:15:40;;;;;;;8.73;7.88;;;;;;;;;;5095471;28;20040;-81
2021/06/21 07:18:07;;;;;;;8.13;7.43;;;;;;;;;;5096245;28;20036;-81
2021/06/21 07:20:33;;;;;;;23.85;8.13;;;;;;;;;;5095454;28;20028;-82
2021/06/21 07:22:59;;;;;;;15.02;8.13;;;;;;;;;;5095474;28;20028;-77
2021/06/21 07:25:25;;;;;;;12.75;9.10;;;;;;;;;;5097126;28;20028;-85
2021/06/21 07:27:51;;;;;;;15.27;9.18;;;;;;;;;;5096619;28;20108;-81
2021/06/21 07:30:17;;;;;;;8.70;7.90;;;;;;;;;;5097088;28;20031;-82
2021/06/21 07:32:43;;;;;;;15.65;8.32;;;;;;;;;;5097138;28;20069;-80
2021/06/21 07:35:10;;;;;;;9.90;8.50;;;;;;;;;;5096805;28;20443;-79
2021/06/21 07:37:36;;;;;;;9.40;8.23;;;;;;;;;;5097551;28;20024;-82
2021/06/21 07:40:02;;;;;;;9.75;8.75;;;;;;;;;;5097193;28;20028;-82
2021/06/21 07:42:28;;;;;;;9.00;8.20;;;;;;;;;;5097126;28;20077;-81
2021/06/21 07:44:54;;;;;;;8.98;8.05;;;;;;;;;;5098296;28;20473;-83
2021/06/21 07:47:20;;;;;;;7.70;7.00;;;;;;;;;;5098361;28;20407;-80
2021/06/21 07:49:46;;;;;;;9.15;8.25;;;;;;;;;;5097870;28;20056;-81
2021/06/21 07:52:12;;;;;;;12.23;8.50;;;;;;;;;;5097333;28;20058;-79
2021/06/21 07:54:38;;;;;;;8.93;8.02;;;;;;;;;;5096596;28;20035;-80
2021/06/21 07:57:04;;;;;;;8.48;7.68;;;;;;;;;;5096751;28;20038;-83
2021/06/21 07:59:30;;;;;;;11.68;8.30;;;;;;;;;;5095977;28;20350;-78
2021/06/21 08:01:57;;;;;;;8.73;7.93;;;;;;;;;;5094498;28;20097;-78
2021/06/21 08:04:23;;;;;;;12.15;7.78;;;;;;;;;;5094348;28;20035;-78
2021/06/21 08:06:49;;;;;;;8.85;7.82;;;;;;;;;;5093601;28;20366;-78
2021/06/21 08:09:15;;;;;;;9.50;8.60;;;;;;;;;;5093135;28;20119;-76
2021/06/21 08:11:41;;;;;;;8.40;7.25;;;;;;;;;;5092876;28;20028;-77
2021/06/21 08:14:07;;;;;;;7.75;7.15;;;;;;;;;;5093637;28;20024;-86
2021/06/21 08:16:33;;;;;;;7.68;6.97;;;;;;;;;;5096514;28;20024;-86
2021/06/21 08:18:59;;;;;;;9.48;8.40;;;;;;;;;;5097553;28;20028;-87
2021/06/21 08:21:25;;;;;;;15.85;9.45;;;;;;;;;;5097317;28;20017;-86
2021/06/21 08:23:52;;;;;;;12.55;9.18;;;;;;;;;;5097601;28;20016;-86
2021/06/21 08:26:18;;;;;;;13.13;10.23;;;;;;;;;;5097372;28;20027;-85
2021/06/21 08:28:46;;;;;;;27.55;10.65;;;;;;;;;;5096612;28;20070;-73
2021/06/21 08:31:12;;;;;;;17.80;10.07;;;;;;;;;;5095209;28;20024;-77
2021/06/21 08:33:38;;;;;;;18.33;10.05;;;;;;;;;;5094738;28;20488;-75
2021/06/21 08:36:06;;;;;;;18.08;11.93;;;;;;;;;;5094473;28;20032;-71
2021/06/21 08:38:34;;;;;;;26.85;12.18;;;;;;;;;;5093879;28;20056;-75
2021/06/21 08:41:01;;;;;;;15.63;12.50;;;;;;;;;;5093488;28;20429;-76
2021/06/21 08:43:27;;;;;;;16.50;12.40;;;;;;;;;;5093135;28;20016;-75
2021/06/21 08:45:53;;;;;;;16.00;11.20;;;;;;;;;;5094886;28;20461;-75
2021/06/21 08:48:20;;;;;;;15.13;11.82;;;;;;;;;;5093859;28;20024;-76
2021/06/21 08:50:46;;;;;;;25.48;11.82;;;;;;;;;;5093025;28;20052;-75
2021/06/21 08:53:12;;;;;;;19.40;13.32;;;;;;;;;;5093094;28;20057;-75
2021/06/21 08:55:38;;;;;;;18.85;12.77;;;;;;;;;;5093574;28;20074;-75
2021/06/21 08:58:05;;;;;;;17.88;10.93;;;;;;;;;;5093003;28;20020;-75
2021/06/21 09:00:31;;;;;;;25.27;13.38;;;;;;;;;;5093404;28;20024;-75
2021/06/21 09:03:00;;;;;;;23.42;13.02;;;;;;;;;;5093726;28;20111;-76
2021/06/21 09:05:26;;;;;;;19.73;12.15;;;;;;;;;;5093836;28;20036;-74
2021/06/21 09:07:59;;;;;;;22.60;13.02;;;;;;;;;;5093439;28;20050;-74
2021/06/21 09:10:26;;;;;;;21.02;12.50;;;;;;;;;;5094343;28;20028;-74
2021/06/21 09:13:12;;;;;;;22.50;12.18;;;;;;;;;;5093118;28;20373;-74
2021/06/21 09:15:41;;;;;;;30.30;13.95;;;;;;;;;;5078974;28;20021;-74
2021/06/21 09:18:27;;;;;;;28.75;13.20;;;;;;;;;;5093495;28;20032;-74
2021/06/21 09:21:13;;;;;;;16.45;12.50;;;;;;;;;;5078197;28;20416;-74
2021/06/21 09:23:39;;;;;;;22.95;12.40;;;;;;;;;;5078919;28;20020;-74
2021/06/21 09:26:25;;;;;;;21.08;13.35;;;;;;;;;;5093528;28;20020;-76
2021/06/21 09:28:51;;;;;;;16.42;12.82;;;;;;;;;;5079132;28;20089;-76
2021/06/21 09:31:17;;;;;;;16.02;11.10;;;;;;;;;;5097012;28;20144;-76
2021/06/21 09:33:44;;;;;;;20.00;12.55;;;;;;;;;;5097080;28;20036;-75
2021/06/21 09:36:10;;;;;;;15.00;11.18;;;;;;;;;;5097330;28;20020;-77
2021/06/21 09:38:36;;;;;;;17.88;11.65;;;;;;;;;;5097509;28;20021;-77
2021/06/21 09:41:02;;;;;;;15.70;11.88;;;;;;;;;;5096976;28;20024;-77
2021/06/21 09:43:29;;;;;;;16.65;10.68;;;;;;;;;;5096993;28;20035;-76
2021/06/21 09:46:15;;;;;;;17.55;11.23;;;;;;;;;;5096558;28;20020;-76
2021/06/21 09:48:49;;;;;;;15.52;11.65;;;;;;;;;;5082296;28;20509;-76
2021/06/21 09:51:35;;;;;;;10.13;9.10;;;;;;;;;;5096976;28;20075;-77
2021/06/21 09:54:02;;;;;;;12.88;10.07;;;;;;;;;;5082208;28;20378;-75
2021/06/21 09:56:31;;;;;;;16.23;10.70;;;;;;;;;;5096607;28;20020;-74
2021/06/21 09:58:57;;;;;;;21.27;10.30;;;;;;;;;;5097112;28;20039;-72
2021/06/21 10:01:27;;;;;;;13.80;9.63;;;;;;;;;;5096601;28;20111;-73
2021/06/21 10:03:53;;;;;;;13.27;10.43;;;;;;;;;;5096579;28;20477;-74
2021/06/21 10:06:19;;;;;;;11.43;10.23;;;;;;;;;;5096235;28;20470;-74
2021/06/21 10:08:49;;;;;;;15.73;9.43;;;;;;;;;;5096430;28;20040;-74
2021/06/21 10:11:36;;;;;;;16.83;10.23;;;;;;;;;;5096415;28;20016;-74
2021/06/21 10:14:04;;;;;;;13.80;11.80;;;;;;;;;;5081986;28;20054;-74
2021/06/21 10:16:30;;;;;;;13.32;11.07;;;;;;;;;;5096629;28;20024;-74
2021/06/21 10:18:56;;;;;;;15.88;12.07;;;;;;;;;;5096449;28;20063;-75
2021/06/21 10:21:23;;;;;;;12.68;11.32;;;;;;;;;;5095929;28;20024;-74
2021/06/21 10:23:49;;;;;;;14.77;11.07;;;;;;;;;;5095808;28;20056;-75
2021/06/21 10:26:15;;;;;;;16.77;10.65;;;;;;;;;;5096427;28;20462;-77
2021/06/21 10:28:41;;;;;;;12.75;11.15;;;;;;;;;;5097079;28;20086;-79
2021/06/21 10:31:07;;;;;;;17.88;10.73;;;;;;;;;;5096823;28;20032;-80
2021/06/21 10:33:33;;;;;;;12.02;9.85;;;;;;;;;;5096763;28;20145;-80
2021/06/21 10:36:00;;;;;;;14.13;10.88;;;;;;;;;;5096374;28;20037;-79
2021/06/21 10:38:26;;;;;;;12.20;10.07;;;;;;;;;;5097321;28;20030;-79
2021/06/21 10:40:54;;;;;;;14.20;9.70;;;;;;;;;;5096069;28;20032;-79
2021/06/21 10:43:40;;;;;;;19.83;9.38;;;;;;;;;;5096390;28;20056;-77
2021/06/21 10:46:22;;;;;;;14.18;9.23;;;;;;;;;;5081544;28;20036;-78
2021/06/21 10:49:08;;;;;;;10.40;8.18;;;;;;;;;;5095975;28;20119;-77
2021/06/21 10:51:36;;;;;;;11.43;10.32;;;;;;;;;;5082028;28;20512;-79
2021/06/21 10:54:02;;;;;;;10.75;8.55;;;;;;;;;;5096642;28;20449;-78
2021/06/21 10:56:48;;;;;;;10.07;9.10;;;;;;;;;;5096030;28;20028;-78
2021/06/21 10:59:16;;;;;;;8.43;7.63;;;;;;;;;;5081188;28;20059;-78
2021/06/21 11:01:45;;;;;;;12.05;8.30;;;;;;;;;;5096329;28;20051;-78
2021/06/21 11:04:11;;;;;;;9.55;8.75;;;;;;;;;;5096492;28;20508;-78
2021/06/21 11:06:37;;;;;;;8.63;7.63;;;;;;;;;;5095848;28;20073;-78
2021/06/21 11:09:04;;;;;;;9.70;8.68;;;;;;;;;;5095909;28;20025;-78
2021/06/21 11:11:44;;;;;;;10.13;8.35;;;;;;;;;;5101085;28;20381;-77
2021/06/21 11:14:14;;;;;;;11.93;10.07;;;;;;;;;;5103909;28;20023;-84
2021/06/21 11:16:40;;;;;;;8.57;7.78;;;;;;;;;;5104020;28;20023;-84
2021/06/21 11:19:26;;;;;;;15.75;9.10;;;;;;;;;;5105873;28;20024;-84
2021/06/21 11:21:54;;;;;;;8.95;8.15;;;;;;;;;;5090987;28;20358;-85
2021/06/21 11:24:40;;;;;;;9.07;8.20;;;;;;;;;;5105829;28;20016;-79
2021/06/21 11:27:07;;;;;;;9.63;8.65;;;;;;;;;;5093241;28;20474;-76
2021/06/21 11:29:35;;;;;;;15.05;7.63;;;;;;;;;;5116064;28;20043;-78
2021/06/21 11:32:01;;;;;;;8.93;8.02;;;;;;;;;;5116030;28;20027;-78
2021/06/21 11:34:47;;;;;;;10.57;9.30;;;;;;;;;;5098562;28;20024;-78
2021/06/21 11:37:31;;;;;;;11.88;10.05;;;;;;;;;;5097114;28;20381;-82
2021/06/21 11:40:19;;;;;;;11.68;10.10;;;;;;;;;;5114947;28;20076;-81
2021/06/21 11:43:05;;;;;;;10.70;9.68;;;;;;;;;;5100130;28;20511;-82
2021/06/21 11:45:50;;;;;;;10.85;9.77;;;;;;;;;;5093430;28;20026;-78
2021/06/21 11:48:21;;;;;;;10.38;9.48;;;;;;;;;;5093978;28;20082;-83
2021/06/21 11:50:47;;;;;;;20.23;9.27;;;;;;;;;;5094929;28;20056;-87
2021/06/21 11:53:13;;;;;;;9.65;8.95;;;;;;;;;;5094191;28;20028;-78
2021/06/21 11:55:39;;;;;;;11.10;9.55;;;;;;;;;;5094520;28;20110;-82
2021/06/21 11:58:05;;;;;;;12.20;8.88;;;;;;;;;;5094504;28;20028;-80
2021/06/21 12:00:33;;;;;;;12.88;8.27;;;;;;;;;;5094584;28;20024;-81
2021/06/21 12:03:01;;;;;;;11.02;7.78;;;;;;;;;;5093999;28;20466;-73
2021/06/21 12:05:27;;;;;;;11.88;9.05;;;;;;;;;;5093471;28;20112;-74
2021/06/21 12:07:53;;;;;;;11.23;8.93;;;;;;;;;;5093446;28;20381;-74
2021/06/21 12:10:20;;;;;;;10.15;9.07;;;;;;;;;;5093280;28;20028;-74
2021/06/21 12:12:47;;;;;;;9.60;8.75;;;;;;;;;;5093728;28;20028;-72
2021/06/21 12:15:14;;;;;;;9.38;8.68;;;;;;;;;;5093849;28;20028;-76
2021/06/21 12:17:40;;;;;;;9.77;9.00;;;;;;;;;;5093757;28;20114;-75
2021/06/21 12:20:17;;;;;;;10.57;8.20;;;;;;;;;;5093383;28;20065;-72
2021/06/21 12:23:03;;;;;;;9.93;8.75;;;;;;;;;;5092863;28;20473;-75
2021/06/21 12:25:31;;;;;;;10.50;8.73;;;;;;;;;;5092577;28;20020;-75
2021/06/21 12:28:17;;;;;;;9.02;8.20;;;;;;;;;;5093971;28;20028;-74
2021/06/21 12:30:45;;;;;;;14.00;8.65;;;;;;;;;;5092932;28;20404;-75
2021/06/21 12:33:31;;;;;;;12.43;9.35;;;;;;;;;;5092610;28;20020;-74
2021/06/21 12:36:18;;;;;;;8.48;7.68;;;;;;;;;;5092663;28;20112;-74
2021/06/21 12:38:55;;;;;;;8.95;8.20;;;;;;;;;;5092362;28;20031;-74
2021/06/21 12:41:23;;;;;;;10.38;9.38;;;;;;;;;;5093431;28;20149;-73
2021/06/21 12:43:53;;;;;;;8.77;8.07;;;;;;;;;;5093027;28;20106;-73
2021/06/21 12:46:21;;;;;;;9.50;8.38;;;;;;;;;;5093896;28;20020;-72
2021/06/21 12:48:47;;;;;;;9.77;7.85;;;;;;;;;;5093020;28;20500;-77
2021/06/21 12:51:13;;;;;;;9.10;8.40;;;;;;;;;;5092919;28;20051;-73
2021/06/21 12:53:43;;;;;;;11.38;7.50;;;;;;;;;;5093118;28;20056;-73
2021/06/21 12:56:18;;;;;;;11.32;8.73;;;;;;;;;;5095609;28;20020;-74
2021/06/21 12:58:44;;;;;;;9.52;8.07;;;;;;;;;;5112902;28;20034;-74
2021/06/21 13:01:19;;;;;;;10.73;7.45;;;;;;;;;;5113318;28;20362;-75
2021/06/21 13:03:45;;;;;;;9.73;8.50;;;;;;;;;;5115049;28;20020;-74
2021/06/21 13:06:12;;;;;;;10.98;7.70;;;;;;;;;;5117598;28;20032;-73
2021/06/21 13:08:38;;;;;;;8.88;8.18;;;;;;;;;;5116944;28;20465;-74
2021/06/21 13:11:12;;;;;;;8.10;7.30;;;;;;;;;;5117093;28;20023;-72
2021/06/21 13:13:39;;;;;;;8.27;7.55;;;;;;;;;;5117494;28;20115;-72
2021/06/21 13:16:09;;;;;;;9.13;8.35;;;;;;;;;;5116480;28;20030;-72
2021/06/21 13:18:42;;;;;;;8.88;7.95;;;;;;;;;;5117563;28;20058;-72
2021/06/21 13:21:09;;;;;;;8.65;7.82;;;;;;;;;;5116465;28;20532;-73
2021/06/21 13:23:50;;;;;;;9.82;8.40;;;;;;;;;;5097152;28;20056;-71
2021/06/21 13:26:17;;;;;;;18.17;8.48;;;;;;;;;;5096291;28;20088;-71
2021/06/21 13:28:43;;;;;;;8.68;7.88;;;;;;;;;;5095980;28;20036;-72
2021/06/21 13:31:11;;;;;;;15.63;8.75;;;;;;;;;;5095393;28;20031;-72
2021/06/21 13:33:44;;;;;;;9.20;8.35;;;;;;;;;;5105721;28;20022;-71
2021/06/21 13:36:10;;;;;;;15.57;8.95;;;;;;;;;;5116290;28;20028;-72
2021/06/21 13:38:36;;;;;;;11.32;8.60;;;;;;;;;;5115574;28;20024;-72
2021/06/21 13:41:04;;;;;;;12.70;8.18;;;;;;;;;;5115972;28;20055;-73
2021/06/21 13:43:31;;;;;;;10.32;7.35;;;;;;;;;;5116927;28;20019;-72
2021/06/21 13:46:13;;;;;;;8.95;7.18;;;;;;;;;;5116809;28;20070;-72
2021/06/21 13:48:39;;;;;;;9.40;8.40;;;;;;;;;;5116406;28;20043;-73
2021/06/21 13:51:23;;;;;;;9.65;8.68;;;;;;;;;;5116154;28;20056;-72
2021/06/21 13:53:49;;;;;;;9.43;7.53;;;;;;;;;;5117197;28;20026;-75
2021/06/21 13:56:32;;;;;;;14.77;9.05;;;;;;;;;;5116242;28;20081;-73
2021/06/21 13:59:00;;;;;;;12.25;8.35;;;;;;;;;;5115574;28;20032;-72
2021/06/21 14:01:26;;;;;;;19.50;8.90;;;;;;;;;;5116660;28;20037;-73
2021/06/21 14:03:52;;;;;;;23.52;8.23;;;;;;;;;;5116219;28;20126;-72
2021/06/21 14:06:19;;;;;;;11.15;7.07;;;;;;;;;;5116735;28;20024;-72
2021/06/21 14:08:45;;;;;;;8.25;7.43;;;;;;;;;;5115783;28;20473;-73
2021/06/21 14:11:13;;;;;;;17.80;7.40;;;;;;;;;;5115562;28;20024;-73
2021/06/21 14:13:39;;;;;;;7.72;6.95;;;;;;;;;;5115236;28;20110;-75
2021/06/21 14:16:07;;;;;;;7.95;7.25;;;;;;;;;;5115226;28;20020;-74
2021/06/21 14:18:33;;;;;;;12.35;7.85;;;;;;;;;;5116178;28;20184;-72
2021/06/21 14:21:00;;;;;;;9.10;7.45;;;;;;;;;;5115593;28;20019;-74
2021/06/21 14:23:26;;;;;;;10.30;7.00;;;;;;;;;;5115818;28;20106;-74
2021/06/21 14:25:52;;;;;;;9.27;8.38;;;;;;;;;;5116144;28;20028;-75
2021/06/21 14:28:18;;;;;;;10.45;7.93;;;;;;;;;;5115168;28;20173;-76
2021/06/21 14:30:45;;;;;;;11.85;7.93;;;;;;;;;;5116229;28;20051;-75
2021/06/21 14:33:11;;;;;;;10.50;8.35;;;;;;;;;;5115743;28;20055;-75
2021/06/21 14:35:37;;;;;;;12.38;9.00;;;;;;;;;;5116456;28;20031;-74
2021/06/21 14:38:03;;;;;;;17.65;9.40;;;;;;;;;;5115934;28;20027;-74
2021/06/21 14:40:29;;;;;;;8.70;7.93;;;;;;;;;;5115886;28;20024;-73